createdAt,value
2018-03-07T00:01:45.724Z,49.67
2018-03-07T00:06:47.166Z,48.27
2018-03-07T00:11:48.511Z,47.63
2018-03-07T00:16:49.828Z,47.60
2018-03-07T00:21:51.160Z,48.07
2018-03-07T00:26:52.497Z,48.73
2018-03-07T00:31:53.856Z,48.47
2018-03-07T00:36:55.206Z,48.90
2018-03-07T00:41:56.540Z,51.40
2018-03-07T00:46:58.610Z,50.63
2018-03-07T00:51:59.976Z,49.80
2018-03-07T00:57:01.338Z,51.67
2018-03-07T01:02:03.409Z,48.93
2018-03-07T01:07:04.750Z,49.47
2018-03-07T01:12:06.099Z,49.17
2018-03-07T01:17:07.444Z,49.17
2018-03-07T01:22:08.883Z,50.70
2018-03-07T01:27:10.228Z,50.00
2018-03-07T01:32:11.611Z,48.93
2018-03-07T01:37:12.993Z,52.03
2018-03-07T01:42:14.365Z,50.83
2018-03-07T01:47:16.438Z,50.30
2018-03-07T01:52:17.791Z,48.57
2018-03-07T01:57:19.122Z,48.27
2018-03-07T02:02:20.451Z,47.30
2018-03-07T02:07:22.544Z,49.87
2018-03-07T02:12:24.633Z,47.00
2018-03-07T02:17:25.954Z,48.10
2018-03-07T02:22:28.081Z,49.50
2018-03-07T02:27:29.433Z,49.77
2018-03-07T02:32:30.857Z,48.50
2018-03-07T02:37:32.175Z,47.20
2018-03-07T02:42:33.513Z,51.30
2018-03-07T02:47:34.907Z,48.80
2018-03-07T02:52:36.993Z,49.17
2018-03-07T02:57:38.426Z,46.33
2018-03-07T03:02:39.802Z,50.10
2018-03-07T03:07:41.957Z,50.20
2018-03-07T03:12:43.293Z,50.00
2018-03-07T03:17:45.379Z,52.30
2018-03-07T03:22:46.711Z,54.47
2018-03-07T03:27:48.055Z,52.17
2018-03-07T03:32:49.467Z,53.90
2018-03-07T03:37:51.528Z,54.63
2018-03-07T03:42:52.840Z,52.10
2018-03-07T03:47:54.202Z,52.70
2018-03-07T03:52:55.559Z,53.40
2018-03-07T03:57:57.636Z,51.53
2018-03-07T04:03:00.194Z,52.67
2018-03-07T04:08:01.543Z,54.90
2018-03-07T04:13:02.876Z,53.27
2018-03-07T04:18:04.196Z,53.40
2018-03-07T04:23:06.297Z,51.80
2018-03-07T04:28:08.514Z,50.97
2018-03-07T04:33:09.907Z,54.50
2018-03-07T04:38:11.296Z,52.10
2018-03-07T04:43:12.661Z,53.00
2018-03-07T04:48:13.984Z,52.83
2018-03-07T04:53:15.305Z,56.63
2018-03-07T04:58:17.403Z,52.30
2018-03-07T05:03:18.740Z,55.67
2018-03-07T05:08:20.141Z,53.40
2018-03-07T05:13:21.482Z,52.90
2018-03-07T05:18:23.527Z,52.47
2018-03-07T05:23:24.856Z,50.80
2018-03-07T05:28:26.203Z,51.17
2018-03-07T05:33:27.547Z,50.77
2018-03-07T05:38:28.897Z,53.57
2018-03-07T05:43:31.041Z,53.20
2018-03-07T05:48:32.395Z,53.80
2018-03-07T05:53:33.716Z,49.03
2018-03-07T05:58:35.043Z,51.43
2018-03-07T06:03:36.388Z,51.30
2018-03-07T06:08:37.730Z,52.23
2018-03-07T06:13:39.122Z,52.47
2018-03-07T06:18:47.564Z,52.77
2018-03-07T06:23:49.627Z,51.97
2018-03-07T06:28:50.955Z,50.23
2018-03-07T06:33:53.039Z,51.00
2018-03-07T06:38:54.390Z,51.60
2018-03-07T06:43:55.714Z,50.93
2018-03-07T06:48:57.046Z,49.90
2018-03-07T06:53:58.362Z,50.33
2018-03-07T06:58:59.708Z,52.40
2018-03-07T07:04:01.051Z,51.83
2018-03-07T07:09:02.464Z,52.23
2018-03-07T07:14:03.793Z,50.17
2018-03-07T07:19:05.143Z,50.30
2018-03-07T07:24:06.488Z,51.40
2018-03-07T07:29:07.857Z,49.53
2018-03-07T07:34:10.034Z,49.90
2018-03-07T07:39:11.427Z,55.37
2018-03-07T07:44:12.794Z,53.30
2018-03-07T07:49:14.166Z,52.57
2018-03-07T07:54:15.523Z,50.90
2018-03-07T07:59:16.911Z,52.00
2018-03-07T08:04:18.972Z,53.87
2018-03-07T08:09:20.295Z,53.33
2018-03-07T08:14:22.355Z,52.27
2018-03-07T08:19:23.688Z,50.93
2018-03-07T08:24:25.006Z,53.33
2018-03-07T08:29:26.349Z,52.07
2018-03-07T08:34:27.700Z,53.53
2018-03-07T08:39:29.068Z,52.47
2018-03-07T08:44:30.395Z,55.50
2018-03-07T08:49:31.757Z,52.53
2018-03-07T08:54:33.076Z,53.40
2018-03-07T08:59:34.427Z,54.43
2018-03-07T09:04:35.777Z,52.57
2018-03-07T09:09:37.168Z,54.57
2018-03-07T09:14:38.569Z,52.70
2018-03-07T09:19:46.916Z,54.43
2018-03-07T09:24:48.259Z,53.53
2018-03-07T09:29:49.616Z,55.10
2018-03-07T09:34:51.854Z,56.80
2018-03-07T09:39:53.551Z,55.47
2018-03-07T09:44:55.156Z,55.00
2018-03-07T09:49:56.812Z,55.10
2018-03-07T09:54:59.248Z,56.03
2018-03-07T10:00:00.671Z,58.27
2018-03-07T10:05:02.102Z,55.53
2018-03-07T10:10:04.317Z,58.63
2018-03-07T10:15:05.737Z,57.63
2018-03-07T10:20:07.128Z,59.37
2018-03-07T10:25:08.540Z,57.30
2018-03-07T10:30:09.931Z,58.80
2018-03-07T10:35:12.118Z,60.90
2018-03-07T10:40:15.121Z,57.60
2018-03-07T10:45:16.923Z,60.65
2018-03-07T10:50:19.251Z,59.80
2018-03-07T10:55:21.023Z,59.00
2018-03-07T11:00:29.623Z,59.90
2018-03-07T11:05:31.432Z,64.20
2018-03-07T11:10:32.796Z,62.50
2018-03-07T11:15:35.080Z,60.47
2018-03-07T11:20:38.022Z,62.30
2018-03-07T11:25:40.101Z,62.43
2018-03-07T11:30:41.700Z,61.27
2018-03-07T11:35:43.612Z,63.00
2018-03-07T11:40:46.744Z,61.20
2018-03-07T11:45:50.019Z,59.57
2018-03-07T11:50:52.351Z,58.97
2018-03-07T11:55:54.351Z,58.70
2018-03-07T12:00:57.253Z,60.87
2018-03-07T12:05:58.939Z,60.63
2018-03-07T12:11:01.495Z,58.30
2018-03-07T12:16:03.878Z,62.70
2018-03-07T12:21:06.535Z,68.37
2018-03-07T12:26:08.666Z,61.77
2018-03-07T12:31:10.352Z,62.00
2018-03-07T12:36:12.094Z,64.80
2018-03-07T12:41:14.034Z,64.30
2018-03-07T12:46:16.933Z,63.20
2018-03-07T12:51:18.923Z,69.97
2018-03-07T12:56:21.299Z,63.30
2018-03-07T13:01:23.158Z,63.43
2018-03-07T13:06:25.643Z,66.97
2018-03-07T13:11:30.888Z,60.00
2018-03-07T13:16:32.654Z,61.87
2018-03-07T13:21:35.224Z,60.23
2018-03-07T13:26:37.835Z,59.57
2018-03-07T13:31:39.311Z,58.63
2018-03-07T13:36:40.672Z,61.00
2018-03-07T13:41:43.687Z,60.07
2018-03-07T13:46:45.240Z,60.17
2018-03-07T13:51:47.704Z,59.87
2018-03-07T13:56:50.079Z,62.77
2018-03-07T14:01:52.629Z,63.27
2018-03-07T14:06:54.225Z,59.30
2018-03-07T14:11:56.100Z,60.53
2018-03-07T14:16:58.173Z,58.27
2018-03-07T14:21:59.700Z,54.43
2018-03-07T14:27:01.265Z,52.43
2018-03-07T14:32:03.427Z,50.90
2018-03-07T14:37:04.864Z,54.33
2018-03-07T14:42:07.012Z,56.53
2018-03-07T14:47:08.717Z,58.07
2018-03-07T14:52:10.152Z,53.27
2018-03-07T14:57:12.323Z,54.00
2018-03-07T15:02:13.776Z,52.67
2018-03-07T15:07:15.220Z,55.43
2018-03-07T15:12:16.642Z,55.37
2018-03-07T15:17:18.735Z,54.60
2018-03-07T15:22:20.178Z,54.03
2018-03-07T15:27:21.628Z,51.43
2018-03-07T15:32:23.046Z,52.37
2018-03-07T15:37:24.468Z,50.80
2018-03-07T15:42:25.851Z,52.03
2018-03-07T15:47:27.287Z,50.73
2018-03-07T15:52:29.566Z,48.60
2018-03-07T15:57:31.005Z,49.10
2018-03-07T16:02:33.215Z,49.33
2018-03-07T16:07:35.351Z,48.67
2018-03-07T16:12:36.810Z,46.47
2018-03-07T16:17:38.239Z,46.93
2018-03-07T16:22:39.711Z,47.80
2018-03-07T16:27:41.350Z,49.13
2018-03-07T16:32:42.759Z,50.43
2018-03-07T16:37:44.206Z,51.37
2018-03-07T16:42:45.969Z,50.80
2018-03-07T16:47:48.212Z,51.10
2018-03-07T16:52:49.676Z,53.57
2018-03-07T16:57:51.818Z,56.43
2018-03-07T17:02:53.296Z,53.10
2018-03-07T17:07:54.704Z,55.60
2018-03-07T17:12:56.210Z,54.03
2018-03-07T17:17:57.775Z,56.73
2018-03-07T17:22:59.375Z,56.03
2018-03-07T17:28:00.843Z,58.57
2018-03-07T17:33:02.256Z,59.53
2018-03-07T17:38:03.664Z,57.87
2018-03-07T17:43:05.069Z,65.00
2018-03-07T17:48:06.962Z,62.40
2018-03-07T17:53:08.402Z,59.87
2018-03-07T17:58:09.919Z,59.33
2018-03-07T18:03:11.328Z,56.33
2018-03-07T18:08:13.250Z,55.63
2018-03-07T18:13:15.354Z,52.50
2018-03-07T18:18:17.812Z,57.47
2018-03-07T18:23:20.364Z,56.70
2018-03-07T18:28:22.177Z,57.00
2018-03-07T18:33:24.818Z,57.53
2018-03-07T18:38:26.760Z,55.77
2018-03-07T18:43:30.884Z,61.60
2018-03-07T18:48:32.894Z,62.20
2018-03-07T18:53:38.949Z,63.67
2018-03-07T18:58:43.332Z,64.10
2018-03-07T19:03:45.781Z,65.57
2018-03-07T19:08:47.595Z,70.90
2018-03-07T19:13:50.343Z,62.37
2018-03-07T19:18:53.623Z,67.63
2018-03-07T19:23:55.410Z,66.90
2018-03-07T19:28:57.301Z,97.37
2018-03-07T19:33:58.992Z,61.70
2018-03-07T19:39:00.607Z,65.73
2018-03-07T19:44:02.187Z,63.37
2018-03-07T19:49:04.290Z,63.67
2018-03-07T19:54:06.193Z,62.00
2018-03-07T19:59:07.813Z,64.00
2018-03-07T20:04:09.389Z,60.27
2018-03-07T20:09:11.052Z,62.50
2018-03-07T20:14:12.800Z,62.07
2018-03-07T20:19:14.699Z,63.30
2018-03-07T20:24:16.493Z,60.37
2018-03-07T20:29:19.022Z,62.30
2018-03-07T20:34:21.264Z,58.50
2018-03-07T20:39:23.056Z,56.67
2018-03-07T20:44:25.599Z,57.30
2018-03-07T20:49:27.692Z,54.93
2018-03-07T20:54:35.086Z,57.40
2018-03-07T20:59:36.827Z,56.80
2018-03-07T21:04:38.256Z,58.47
2018-03-07T21:09:39.703Z,58.43
2018-03-07T21:14:41.805Z,60.40
2018-03-07T21:19:43.637Z,59.57
2018-03-07T21:24:45.763Z,63.17
2018-03-07T21:29:47.132Z,63.80
2018-03-07T21:34:48.722Z,64.40
2018-03-07T21:39:52.351Z,60.47
2018-03-07T21:44:55.758Z,55.67
2018-03-07T21:49:57.170Z,54.93
2018-03-07T21:54:58.564Z,52.07
2018-03-07T21:59:59.950Z,51.17
2018-03-07T22:05:01.280Z,47.70
2018-03-07T22:10:02.642Z,46.83
2018-03-07T22:15:04.543Z,45.17
2018-03-07T22:20:06.018Z,44.70
2018-03-07T22:25:07.348Z,46.77
2018-03-07T22:30:09.450Z,47.73
2018-03-07T22:35:14.315Z,45.93
2018-03-07T22:40:15.724Z,40.87
2018-03-07T22:45:17.117Z,37.50
2018-03-07T22:50:19.259Z,35.60
2018-03-07T22:55:20.626Z,33.17
2018-03-07T23:00:28.820Z,29.77
2018-03-07T23:05:30.187Z,28.37
2018-03-07T23:10:31.536Z,28.00
2018-03-07T23:15:33.655Z,26.97
2018-03-07T23:20:35.780Z,26.10
2018-03-07T23:25:37.139Z,26.20
2018-03-07T23:30:38.497Z,26.97
2018-03-07T23:35:39.883Z,25.87
2018-03-07T23:40:41.236Z,25.83
2018-03-07T23:45:42.600Z,28.27
2018-03-07T23:50:43.980Z,28.37
2018-03-07T23:55:45.363Z,27.00
